Time;durP1;ratioP1;P1;durP2;ratioP2;P2;SDS_P1;SDS_P2;PMS_P1;PMS_P2;Temp;Humidity;BMP_temperature;BMP_pressure;BME280_temperature;BME280_humidity;BME280_pressure;Samples;Min_cycle;Max_cycle;Signal;HPM_P1;HPM_P2
2021/06/09 00:01:35;;;;;;;9.63;8.48;;;;;;;19.46;69.71;95991.75;5028555;28;20206;-83
2021/06/09 00:04:01;;;;;;;9.15;8.35;;;;;;;19.44;69.79;95987.75;5023406;28;20207;-87
2021/06/09 00:06:27;;;;;;;9.77;8.90;;;;;;;19.37;70.60;95985.25;5029022;28;20198;-83
2021/06/09 00:08:53;;;;;;;9.68;8.88;;;;;;;19.31;70.79;95989.53;5028098;28;20290;-83
2021/06/09 00:11:19;;;;;;;10.00;9.20;;;;;;;19.26;70.93;95984.16;5025586;28;20313;-84
2021/06/09 00:13:45;;;;;;;9.50;8.80;;;;;;;19.24;71.20;95998.47;5028146;28;20194;-83
2021/06/09 00:16:15;;;;;;;9.70;9.00;;;;;;;19.19;71.74;95982.69;5022068;28;20209;-85
2021/06/09 00:18:42;;;;;;;8.80;8.20;;;;;;;19.27;70.79;95979.75;5013441;28;20254;-86
2021/06/09 00:21:09;;;;;;;10.00;9.20;;;;;;;19.17;71.66;95982.91;5012594;28;20199;-86
2021/06/09 00:23:35;;;;;;;10.10;9.30;;;;;;;19.10;71.65;95979.56;5014268;28;20207;-86
2021/06/09 00:26:03;;;;;;;9.18;8.48;;;;;;;19.08;71.79;95978.97;5016296;28;20302;-86
2021/06/09 00:28:30;;;;;;;9.60;8.70;;;;;;;19.05;72.67;95978.66;5023516;28;20218;-86
2021/06/09 00:30:56;;;;;;;10.25;9.32;;;;;;;19.06;72.34;95975.00;5035954;28;20202;-86
2021/06/09 00:33:25;;;;;;;9.80;9.00;;;;;;;19.02;72.47;95981.69;5023786;28;20228;-86
2021/06/09 00:35:51;;;;;;;9.88;9.18;;;;;;;19.05;72.00;95982.03;5016501;28;20195;-87
2021/06/09 00:38:17;;;;;;;9.85;9.05;;;;;;;19.06;72.20;95977.59;5015517;28;20579;-86
2021/06/09 00:40:43;;;;;;;8.95;8.25;;;;;;;19.08;71.90;95986.00;5016274;28;20214;-86
2021/06/09 00:43:12;;;;;;;9.48;8.68;;;;;;;19.07;72.83;95985.22;5016508;28;20211;-86
2021/06/09 00:45:42;;;;;;;8.95;8.25;;;;;;;19.09;72.07;95979.78;5015712;28;20555;-86
2021/06/09 00:48:10;;;;;;;9.60;8.82;;;;;;;19.03;72.35;95980.69;5016393;28;20218;-86
2021/06/09 00:50:37;;;;;;;9.88;9.05;;;;;;;18.95;72.73;95982.56;5015931;28;20199;-86
2021/06/09 00:55:48;;;;;;;9.13;8.43;;;;;;;18.94;72.17;95977.56;5016079;28;20752;-86
2021/06/09 00:58:15;;;;;;;9.82;9.02;;;;;;;18.94;72.75;95978.34;5016349;28;20218;-86
2021/06/09 01:00:42;;;;;;;9.45;8.75;;;;;;;18.98;72.20;95979.50;5016193;28;20202;-86
2021/06/09 01:03:08;;;;;;;9.93;9.13;;;;;;;18.95;72.88;95979.94;5015215;28;20203;-86
2021/06/09 01:05:35;;;;;;;9.73;8.93;;;;;;;18.93;72.51;95974.16;5015486;28;20210;-86
2021/06/09 01:08:04;;;;;;;9.77;8.98;;;;;;;18.88;72.59;95976.59;5015572;28;20290;-86
2021/06/09 01:10:30;;;;;;;9.07;8.38;;;;;;;18.91;72.87;95980.59;5015622;28;20209;-86
2021/06/09 01:12:57;;;;;;;9.80;9.00;;;;;;;18.94;72.19;95969.72;5014556;28;20656;-86
2021/06/09 01:15:23;;;;;;;9.70;8.95;;;;;;;18.92;72.28;95985.59;5015366;28;20206;-86
2021/06/09 01:17:49;;;;;;;9.63;8.82;;;;;;;18.86;72.87;95983.84;5015472;28;20214;-85
2021/06/09 01:20:15;;;;;;;9.73;8.88;;;;;;;18.80;73.41;95982.13;5015689;28;20205;-86
2021/06/09 01:22:43;;;;;;;10.68;9.70;;;;;;;18.65;74.31;95979.09;5015324;28;20206;-85
2021/06/09 01:25:10;;;;;;;10.23;9.40;;;;;;;18.69;74.11;95979.44;5015046;28;20578;-86
2021/06/09 01:27:37;;;;;;;9.50;8.68;;;;;;;18.62;74.37;95977.72;5014730;28;20203;-86
2021/06/09 01:30:06;;;;;;;9.90;9.20;;;;;;;18.63;74.09;95976.69;5014706;28;20234;-86
2021/06/09 01:32:33;;;;;;;9.68;8.98;;;;;;;18.70;73.49;95983.63;5014112;28;20761;-85
2021/06/09 01:34:59;;;;;;;9.65;8.85;;;;;;;18.74;73.58;95987.41;5014525;28;20202;-86
2021/06/09 01:37:25;;;;;;;9.60;8.80;;;;;;;18.71;74.08;95980.00;5010492;28;20214;-85
2021/06/09 01:39:55;;;;;;;10.57;9.30;;;;;;;18.72;73.72;95985.03;5015276;28;20307;-86
2021/06/09 01:42:24;;;;;;;9.70;9.00;;;;;;;18.79;73.01;95985.75;5015347;28;20198;-84
2021/06/09 01:44:50;;;;;;;9.48;8.77;;;;;;;18.80;73.22;95984.75;5014611;28;20578;-86
2021/06/09 01:47:16;;;;;;;9.77;9.02;;;;;;;18.82;73.20;95981.91;5014718;28;20330;-86
2021/06/09 01:49:43;;;;;;;9.75;9.05;;;;;;;18.76;73.46;95983.56;5013919;28;20804;-86
2021/06/09 01:52:09;;;;;;;9.43;8.73;;;;;;;18.76;73.64;95985.38;5013657;28;20733;-85
2021/06/09 01:54:35;;;;;;;10.00;9.20;;;;;;;18.78;73.21;95980.75;5014684;28;20207;-86
2021/06/09 01:57:03;;;;;;;9.68;8.98;;;;;;;18.76;73.69;95978.34;5014417;28;20203;-85
2021/06/09 01:59:32;;;;;;;10.07;9.18;;;;;;;18.78;73.46;95973.72;5013902;28;20227;-86
2021/06/09 02:01:59;;;;;;;10.38;9.57;;;;;;;18.81;73.28;95969.88;5013801;28;20199;-84
2021/06/09 02:04:25;;;;;;;9.73;8.88;;;;;;;18.81;72.93;95962.84;5013753;28;20206;-86
2021/06/09 02:06:52;;;;;;;10.00;9.10;;;;;;;18.82;72.71;95969.66;5013926;28;20257;-86
2021/06/09 02:09:20;;;;;;;10.07;9.27;;;;;;;18.82;72.59;95961.84;5012339;28;20587;-83
2021/06/09 02:11:50;;;;;;;9.73;8.93;;;;;;;18.77;72.99;95969.53;5011310;28;20280;-84
2021/06/09 02:14:19;;;;;;;9.93;9.13;;;;;;;18.71;73.22;95970.38;5011506;28;20309;-84
2021/06/09 02:16:47;;;;;;;10.65;9.85;;;;;;;18.63;73.53;95965.47;5012110;28;20628;-84
2021/06/09 02:19:14;;;;;;;10.73;9.93;;;;;;;18.56;73.99;95970.72;5012005;28;20226;-84
2021/06/09 02:21:41;;;;;;;9.52;8.80;;;;;;;18.57;74.02;95967.09;5011408;28;20199;-84
2021/06/09 02:24:08;;;;;;;10.15;9.38;;;;;;;18.57;74.11;95966.28;5012325;28;20210;-83
2021/06/09 02:26:36;;;;;;;9.88;9.13;;;;;;;18.59;73.74;95965.09;5011830;28;20207;-84
2021/06/09 02:29:04;;;;;;;10.02;9.25;;;;;;;18.61;73.44;95963.06;5011740;28;20223;-84
2021/06/09 02:31:31;;;;;;;10.13;9.32;;;;;;;18.58;74.08;95967.91;5011815;28;20226;-84
2021/06/09 02:33:58;;;;;;;10.32;9.45;;;;;;;18.57;73.39;95961.09;5011184;28;20230;-86
2021/06/09 02:36:25;;;;;;;10.43;9.43;;;;;;;18.57;73.02;95968.91;5011002;28;20206;-83
2021/06/09 02:38:51;;;;;;;11.13;10.20;;;;;;;18.41;74.63;95966.88;5011825;28;20860;-84
2021/06/09 02:41:18;;;;;;;10.77;9.68;;;;;;;18.44;74.20;95966.44;5011583;28;20218;-84
2021/06/09 02:43:45;;;;;;;9.75;9.05;;;;;;;18.44;74.12;95969.06;5010740;28;20678;-84
2021/06/09 02:46:14;;;;;;;10.27;9.48;;;;;;;18.46;73.92;95970.44;5011143;28;20203;-84
2021/06/09 02:48:44;;;;;;;10.25;9.35;;;;;;;18.47;73.82;95966.00;5012235;28;20223;-85
2021/06/09 02:51:14;;;;;;;10.15;9.30;;;;;;;18.43;74.06;95973.47;5011456;28;20698;-84
2021/06/09 02:53:48;;;;;;;10.43;9.40;;;;;;;18.38;74.15;95964.69;4992363;28;20203;-84
2021/06/09 02:56:23;;;;;;;10.75;9.85;;;;;;;18.35;73.99;95971.13;4991600;28;20204;-83
2021/06/09 02:58:58;;;;;;;10.20;9.35;;;;;;;18.35;74.44;95971.13;4992386;28;20211;-83
2021/06/09 03:01:29;;;;;;;10.50;9.70;;;;;;;18.35;74.05;95970.31;4992071;28;20195;-85
2021/06/09 03:04:06;;;;;;;10.85;9.95;;;;;;;18.29;74.56;95975.38;4992334;28;20207;-86
2021/06/09 03:06:39;;;;;;;10.63;9.63;;;;;;;18.24;75.10;95971.84;4991819;28;20288;-87
2021/06/09 03:09:07;;;;;;;10.63;9.70;;;;;;;18.25;74.28;95976.84;5003216;28;20747;-84
2021/06/09 03:11:42;;;;;;;10.98;10.02;;;;;;;18.24;74.48;95974.44;5011395;28;20749;-84
2021/06/09 03:14:28;;;;;;;11.00;10.13;;;;;;;18.21;74.14;95973.06;5011636;28;20211;-84
2021/06/09 03:16:57;;;;;;;10.80;9.90;;;;;;;18.10;75.48;95973.75;5010928;28;20214;-84
2021/06/09 03:19:36;;;;;;;10.73;9.75;;;;;;;18.06;75.60;95970.00;5011489;28;20363;-84
2021/06/09 03:22:15;;;;;;;10.70;9.90;;;;;;;18.02;76.31;95971.44;5010829;28;20203;-84
2021/06/09 03:24:45;;;;;;;11.32;10.43;;;;;;;17.98;76.41;95969.44;5011327;28;20249;-85
2021/06/09 03:27:17;;;;;;;10.85;9.95;;;;;;;17.92;76.86;95968.50;5010999;28;20581;-85
2021/06/09 03:29:48;;;;;;;10.35;9.55;;;;;;;17.93;76.72;95970.09;5020477;28;20225;-85
2021/06/09 03:32:19;;;;;;;10.95;9.95;;;;;;;17.97;76.49;95973.88;5008645;28;20215;-85
2021/06/09 03:34:53;;;;;;;10.27;9.48;;;;;;;18.00;76.52;95975.25;4991883;28;20206;-85
2021/06/09 03:37:20;;;;;;;10.95;9.95;;;;;;;18.05;76.04;95980.63;4991352;28;20222;-84
2021/06/09 03:39:47;;;;;;;10.48;9.68;;;;;;;18.06;75.63;95970.00;4991966;28;20223;-84
2021/06/09 03:42:18;;;;;;;10.43;9.30;;;;;;;18.06;75.67;95979.63;4991309;28;20226;-84
2021/06/09 03:44:48;;;;;;;11.30;10.00;;;;;;;18.09;75.44;95971.38;4991778;28;20196;-85
2021/06/09 03:47:16;;;;;;;11.00;10.10;;;;;;;18.12;74.89;95969.13;4991568;28;20730;-85
2021/06/09 03:49:44;;;;;;;11.07;10.18;;;;;;;18.18;74.75;95970.09;4991905;28;20238;-84
2021/06/09 03:52:12;;;;;;;10.93;10.05;;;;;;;18.22;74.50;95973.88;4987107;28;20294;-85
2021/06/09 03:54:41;;;;;;;11.38;10.43;;;;;;;18.13;74.70;95965.50;4991391;28;20199;-86
2021/06/09 03:57:07;;;;;;;11.30;10.38;;;;;;;18.11;74.90;95977.16;4992984;28;20245;-84
2021/06/09 03:59:34;;;;;;;10.60;9.70;;;;;;;18.09;75.08;95976.59;4995844;28;20235;-84
2021/06/09 04:02:01;;;;;;;11.55;10.65;;;;;;;18.04;75.83;95976.44;4995381;28;20210;-84
2021/06/09 04:04:30;;;;;;;10.00;9.30;;;;;;;18.04;76.03;95974.63;4995588;28;20207;-85
2021/06/09 04:06:58;;;;;;;11.32;10.43;;;;;;;18.05;75.91;95973.63;4995435;28;20204;-84
2021/06/09 04:09:27;;;;;;;10.93;10.02;;;;;;;18.06;75.65;95977.00;4995283;28;20220;-85
2021/06/09 04:11:57;;;;;;;11.20;10.30;;;;;;;18.06;76.17;95971.81;4994819;28;20236;-86
2021/06/09 04:14:27;;;;;;;11.60;10.70;;;;;;;18.10;75.75;95975.56;4995750;28;20211;-84
2021/06/09 04:16:55;;;;;;;12.15;10.85;;;;;;;18.06;76.33;95972.59;4995433;28;20203;-84
2021/06/09 04:19:23;;;;;;;11.32;10.32;;;;;;;18.07;76.51;95978.63;4995680;28;20219;-85
2021/06/09 04:21:49;;;;;;;11.65;10.43;;;;;;;18.02;77.74;95983.66;4994456;28;20675;-86
2021/06/09 04:24:16;;;;;;;10.88;10.07;;;;;;;17.98;78.14;95987.69;4994872;28;20342;-84
2021/06/09 04:26:44;;;;;;;11.60;10.60;;;;;;;18.08;76.63;95978.41;4995262;28;20223;-84
2021/06/09 04:29:10;;;;;;;12.15;11.05;;;;;;;18.14;76.72;95981.94;4994864;28;20224;-84
2021/06/09 04:31:36;;;;;;;12.13;11.02;;;;;;;18.21;76.09;95978.28;4994897;28;20230;-84
2021/06/09 04:34:02;;;;;;;11.52;10.43;;;;;;;18.28;75.76;95983.41;5012513;28;20227;-84
2021/06/09 04:36:28;;;;;;;12.15;11.07;;;;;;;18.29;76.06;95985.00;5014761;28;20203;-84
2021/06/09 04:38:55;;;;;;;12.45;11.55;;;;;;;18.34;75.97;95979.16;5014258;28;20718;-84
2021/06/09 04:41:22;;;;;;;13.70;10.88;;;;;;;18.37;76.60;95982.13;5014215;28;20222;-84
2021/06/09 04:43:51;;;;;;;12.07;10.88;;;;;;;18.45;76.48;95986.28;5012225;28;20206;-84
2021/06/09 04:46:18;;;;;;;11.88;10.77;;;;;;;18.53;76.15;95978.97;5009546;28;20198;-84
2021/06/09 04:48:56;;;;;;;12.48;11.25;;;;;;;18.61;76.03;95981.34;5012762;28;20222;-85
2021/06/09 04:51:27;;;;;;;11.95;10.95;;;;;;;18.66;75.48;95982.50;5013746;28;20191;-85
2021/06/09 04:53:53;;;;;;;13.57;12.50;;;;;;;18.68;75.65;95983.84;5014305;28;20260;-85
2021/06/09 04:56:19;;;;;;;22.02;20.08;;;;;;;18.74;75.79;95980.38;5014505;28;20198;-86
2021/06/09 04:58:45;;;;;;;14.48;13.07;;;;;;;18.82;76.09;95984.53;5013415;28;20313;-87
2021/06/09 05:01:12;;;;;;;12.57;11.55;;;;;;;18.88;75.95;95981.81;5013603;28;20198;-87
2021/06/09 05:03:38;;;;;;;12.18;11.18;;;;;;;18.85;76.49;95986.72;5011262;28;21150;-86
2021/06/09 05:06:04;;;;;;;12.00;11.10;;;;;;;18.85;76.83;95981.50;5019219;28;20229;-87
2021/06/09 05:08:30;;;;;;;12.13;11.20;;;;;;;18.98;75.62;95991.75;5013399;28;20215;-86
2021/06/09 05:10:57;;;;;;;11.48;10.52;;;;;;;19.07;75.51;95993.03;5015478;28;20202;-87
2021/06/09 05:13:27;;;;;;;12.32;11.32;;;;;;;19.06;76.16;95995.88;5014893;28;20758;-87
2021/06/09 05:15:58;;;;;;;12.52;11.43;;;;;;;19.08;75.48;95986.00;5019482;28;20225;-85
2021/06/09 05:18:28;;;;;;;12.80;11.48;;;;;;;19.15;75.61;95987.53;5028231;28;20234;-86
2021/06/09 05:20:55;;;;;;;11.20;10.38;;;;;;;19.23;75.27;95991.66;5015668;28;20203;-87
2021/06/09 05:23:25;;;;;;;12.07;11.05;;;;;;;19.31;75.02;95986.13;5014384;28;20207;-86
2021/06/09 05:25:51;;;;;;;13.35;11.98;;;;;;;19.28;74.79;95978.72;5014219;28;20205;-87
2021/06/09 05:28:20;;;;;;;13.27;12.27;;;;;;;19.30;74.62;95979.31;5014542;28;20226;-85
2021/06/09 05:30:47;;;;;;;12.85;11.85;;;;;;;19.34;74.59;95975.25;5015082;28;20210;-85
2021/06/09 05:33:15;;;;;;;11.88;10.98;;;;;;;19.44;74.01;95982.53;5014779;28;20656;-86
2021/06/09 05:35:42;;;;;;;12.70;11.70;;;;;;;19.52;73.69;95979.66;5012979;28;20199;-87
2021/06/09 05:38:09;;;;;;;11.63;10.63;;;;;;;19.59;73.64;95983.78;5014923;28;20709;-86
2021/06/09 05:40:35;;;;;;;12.30;11.30;;;;;;;19.55;74.31;95984.44;5015614;28;20209;-87
2021/06/09 05:43:01;;;;;;;12.63;11.55;;;;;;;19.61;73.88;95980.94;5015419;28;20436;-87
2021/06/09 05:45:29;;;;;;;12.60;11.52;;;;;;;19.67;73.40;95978.22;5015970;28;20209;-87
2021/06/09 05:47:55;;;;;;;13.38;12.18;;;;;;;19.74;73.03;95980.72;5016368;28;20206;-86
2021/06/09 05:50:23;;;;;;;12.77;11.75;;;;;;;19.73;73.65;95981.75;5014871;28;20203;-87
2021/06/09 05:52:52;;;;;;;12.65;11.45;;;;;;;19.78;72.83;95974.06;5014059;28;20218;-86
2021/06/09 05:55:21;;;;;;;13.25;12.10;;;;;;;19.81;72.75;95978.84;5012871;28;20206;-86
2021/06/09 05:57:47;;;;;;;15.00;12.68;;;;;;;19.89;72.65;95977.69;5018525;28;20693;-86
2021/06/09 06:00:15;;;;;;;12.82;11.63;;;;;;;19.90;72.46;95974.84;5013663;28;20297;-87
2021/06/09 06:02:42;;;;;;;12.10;11.10;;;;;;;19.99;72.25;95972.72;5015622;28;20225;-87
2021/06/09 06:05:09;;;;;;;13.50;12.23;;;;;;;20.08;71.88;95971.34;5015896;28;20214;-87
2021/06/09 06:07:36;;;;;;;13.43;12.23;;;;;;;20.10;71.73;95971.13;5016479;28;20212;-87
2021/06/09 06:10:06;;;;;;;13.30;12.13;;;;;;;20.15;71.23;95979.88;5014505;28;20226;-87
2021/06/09 06:12:33;;;;;;;12.90;11.60;;;;;;;20.18;71.13;95973.41;5015243;28;20223;-86
2021/06/09 06:14:59;;;;;;;12.05;11.05;;;;;;;20.28;71.57;95973.63;5014088;28;20221;-86
2021/06/09 06:17:26;;;;;;;11.57;10.60;;;;;;;20.37;71.04;95964.47;5014127;28;20241;-85
2021/06/09 06:19:52;;;;;;;11.60;10.55;;;;;;;20.40;71.14;95973.69;5014832;28;20226;-85
2021/06/09 06:22:19;;;;;;;13.00;11.73;;;;;;;20.43;70.58;95971.38;5014335;28;20206;-87
2021/06/09 06:24:47;;;;;;;12.63;11.43;;;;;;;20.39;70.83;95974.69;5014433;28;20251;-86
2021/06/09 06:27:15;;;;;;;11.05;10.02;;;;;;;20.56;70.59;95975.59;5014025;28;20207;-87
2021/06/09 06:29:43;;;;;;;13.07;11.57;;;;;;;20.61;70.38;95971.25;5015193;28;20237;-86
2021/06/09 06:32:12;;;;;;;13.38;12.27;;;;;;;20.47;70.20;95976.97;5013721;28;20222;-86
2021/06/09 06:34:42;;;;;;;13.48;12.23;;;;;;;20.40;70.33;95982.28;5015282;28;20203;-86
2021/06/09 06:37:09;;;;;;;12.55;11.40;;;;;;;20.53;70.17;95983.91;5015612;28;20199;-86
2021/06/09 06:39:36;;;;;;;11.50;10.60;;;;;;;20.56;70.46;95992.09;5015014;28;20225;-86
2021/06/09 06:42:02;;;;;;;12.80;11.80;;;;;;;20.62;69.70;95987.75;5015153;28;20198;-86
2021/06/09 06:44:30;;;;;;;13.60;11.60;;;;;;;20.73;69.86;95984.34;5015688;28;20207;-86
2021/06/09 06:46:56;;;;;;;12.27;11.15;;;;;;;20.83;69.39;95981.91;5016173;28;20216;-86
2021/06/09 06:49:25;;;;;;;11.75;10.75;;;;;;;20.92;68.80;95990.22;5015356;28;20223;-86
2021/06/09 06:51:52;;;;;;;11.98;10.95;;;;;;;20.96;69.11;95986.13;5015804;28;20223;-86
2021/06/09 06:54:20;;;;;;;11.35;10.30;;;;;;;21.06;68.44;95991.53;5015711;28;20222;-87
2021/06/09 06:56:48;;;;;;;11.93;10.80;;;;;;;21.08;67.97;95988.69;5014959;28;20728;-87
2021/06/09 06:59:14;;;;;;;11.15;10.25;;;;;;;21.09;68.02;95996.31;5014644;28;20226;-86
2021/06/09 07:01:42;;;;;;;10.80;9.90;;;;;;;21.19;68.07;95995.72;5016497;28;20209;-86
2021/06/09 07:04:10;;;;;;;11.73;10.73;;;;;;;21.16;68.22;95994.38;5014812;28;20203;-87
2021/06/09 07:06:37;;;;;;;11.32;10.43;;;;;;;21.23;67.75;95989.81;5015405;28;20206;-86
2021/06/09 07:09:04;;;;;;;11.43;10.23;;;;;;;21.25;68.45;96003.47;5015267;28;20596;-86
2021/06/09 07:11:32;;;;;;;15.07;10.85;;;;;;;21.32;67.87;96000.72;5011841;28;20213;-84
2021/06/09 07:13:59;;;;;;;11.05;9.93;;;;;;;21.40;67.57;95999.53;5012616;28;20256;-86
2021/06/09 07:16:29;;;;;;;12.30;10.77;;;;;;;21.33;66.70;95994.47;5013574;28;20206;-87
2021/06/09 07:18:57;;;;;;;11.77;10.48;;;;;;;21.41;67.31;96004.53;5006466;28;20219;-85
2021/06/09 07:21:24;;;;;;;11.32;10.32;;;;;;;21.44;67.84;96004.09;4997117;28;20207;-86
2021/06/09 07:23:50;;;;;;;11.57;10.68;;;;;;;21.49;67.84;96000.78;5013126;28;20202;-85
2021/06/09 07:26:18;;;;;;;12.38;10.88;;;;;;;21.50;68.54;96003.16;5015709;28;20293;-86
2021/06/09 07:28:46;;;;;;;11.00;10.10;;;;;;;21.52;67.77;96001.09;5015945;28;20250;-87
2021/06/09 07:31:14;;;;;;;11.40;10.50;;;;;;;21.61;67.05;96002.28;5014306;28;20737;-88
2021/06/09 07:33:41;;;;;;;11.23;10.23;;;;;;;21.67;66.61;96000.56;5015876;28;20235;-85
2021/06/09 07:36:11;;;;;;;11.80;10.57;;;;;;;21.57;66.29;96001.16;5015170;28;20272;-84
2021/06/09 07:38:43;;;;;;;13.25;12.15;;;;;;;21.35;67.83;96008.91;5015824;28;20234;-87
2021/06/09 07:41:11;;;;;;;12.00;10.85;;;;;;;21.48;68.30;96005.22;5014173;28;20261;-86
2021/06/09 07:43:41;;;;;;;13.18;11.98;;;;;;;21.46;67.45;95993.38;5014221;28;20234;-84
2021/06/09 07:46:08;;;;;;;11.18;10.38;;;;;;;21.50;66.87;96004.97;5014607;28;20203;-85
2021/06/09 07:48:36;;;;;;;11.45;10.55;;;;;;;21.61;66.77;96010.16;5016144;28;20219;-85
2021/06/09 07:51:07;;;;;;;11.65;10.75;;;;;;;21.71;66.55;96009.56;5017189;28;20203;-85
2021/06/09 07:53:36;;;;;;;12.13;11.02;;;;;;;21.73;66.36;96010.13;5016504;28;20226;-85
2021/06/09 07:56:03;;;;;;;11.00;10.10;;;;;;;21.88;65.61;96014.81;5014739;28;20202;-84
2021/06/09 07:58:32;;;;;;;12.32;11.23;;;;;;;21.98;64.49;96009.72;5013712;28;20218;-86
2021/06/09 08:00:59;;;;;;;11.27;10.38;;;;;;;22.15;64.11;96015.81;5013365;28;20262;-87
2021/06/09 08:03:26;;;;;;;11.80;10.80;;;;;;;22.10;64.84;96018.38;5015982;28;20662;-86
2021/06/09 08:05:53;;;;;;;11.45;10.55;;;;;;;22.23;64.84;96019.88;5016862;28;20203;-86
2021/06/09 08:08:19;;;;;;;12.23;11.13;;;;;;;22.25;64.53;96017.81;5015381;28;20230;-86
2021/06/09 08:10:47;;;;;;;12.05;11.15;;;;;;;22.28;64.72;96012.09;5016035;28;20566;-83
2021/06/09 08:13:13;;;;;;;11.48;10.48;;;;;;;22.40;64.87;96021.47;5017715;28;20226;-87
2021/06/09 08:15:40;;;;;;;12.75;11.65;;;;;;;22.46;64.53;96021.53;5017844;28;20252;-86
2021/06/09 08:18:06;;;;;;;12.30;11.20;;;;;;;22.60;64.18;96018.34;5019153;28;20214;-84
2021/06/09 08:20:33;;;;;;;11.10;10.15;;;;;;;22.79;65.86;96024.13;5021740;28;20298;-85
2021/06/09 08:23:00;;;;;;;11.02;10.13;;;;;;;22.95;65.04;96022.50;5023733;28;20195;-84
2021/06/09 08:25:27;;;;;;;12.65;11.65;;;;;;;22.94;63.49;96019.06;5023383;28;20199;-84
2021/06/09 08:27:55;;;;;;;13.05;11.77;;;;;;;22.82;62.67;96020.22;5024859;28;20195;-86
2021/06/09 08:30:23;;;;;;;12.32;11.32;;;;;;;23.05;63.36;96018.19;5019073;28;20199;-87
2021/06/09 08:32:49;;;;;;;11.45;10.45;;;;;;;23.35;62.84;96025.63;5017072;28;20230;-84
2021/06/09 08:35:16;;;;;;;11.48;10.57;;;;;;;23.44;62.18;96020.72;4996055;28;20223;-85
2021/06/09 08:37:43;;;;;;;11.55;10.65;;;;;;;23.43;62.24;96019.94;5015983;28;20203;-84
2021/06/09 08:40:11;;;;;;;11.75;10.80;;;;;;;23.45;61.66;96022.31;5016031;28;20257;-84
2021/06/09 08:42:41;;;;;;;11.80;10.70;;;;;;;23.63;61.96;96024.66;5018632;28;20200;-86
2021/06/09 08:45:10;;;;;;;13.57;12.38;;;;;;;23.75;61.09;96019.22;5016760;28;20199;-88
2021/06/09 08:47:38;;;;;;;12.35;11.27;;;;;;;23.89;60.22;96017.78;5018391;28;20202;-85
2021/06/09 08:50:05;;;;;;;12.27;11.32;;;;;;;23.90;60.24;96016.72;5018092;28;20233;-87
2021/06/09 08:52:31;;;;;;;12.05;10.98;;;;;;;24.07;60.53;96014.78;5020116;28;20223;-85
2021/06/09 08:54:57;;;;;;;13.30;12.20;;;;;;;24.18;59.76;96010.41;5022230;28;20199;-84
2021/06/09 08:57:23;;;;;;;12.32;11.25;;;;;;;24.24;59.77;96006.81;5023011;28;20211;-85
2021/06/09 08:59:49;;;;;;;12.35;11.35;;;;;;;24.27;59.76;96011.53;5023529;28;20226;-85
2021/06/09 09:02:17;;;;;;;12.82;11.57;;;;;;;24.19;59.48;96019.09;5021116;28;20203;-85
2021/06/09 09:04:43;;;;;;;12.85;11.73;;;;;;;24.27;60.00;96024.69;5022793;28;20218;-83
2021/06/09 09:07:11;;;;;;;12.55;11.55;;;;;;;24.48;58.53;96020.38;5020756;28;20261;-84
2021/06/09 09:09:38;;;;;;;11.82;10.80;;;;;;;24.58;58.46;96023.09;5020954;28;20227;-84
2021/06/09 09:12:05;;;;;;;11.30;10.40;;;;;;;24.71;58.84;96024.47;5020338;28;20238;-86
2021/06/09 09:14:31;;;;;;;13.20;12.00;;;;;;;24.72;56.55;96026.06;5019092;28;20215;-85
2021/06/09 09:17:05;;;;;;;12.27;11.15;;;;;;;24.74;56.76;96026.59;5020473;28;20202;-84
2021/06/09 09:19:36;;;;;;;12.50;11.50;;;;;;;24.90;56.22;96025.63;5019687;28;20309;-86
2021/06/09 09:22:03;;;;;;;11.32;9.88;;;;;;;24.97;56.19;96025.44;5020882;28;20202;-84
2021/06/09 09:24:41;;;;;;;11.93;11.00;;;;;;;24.98;55.14;96013.84;5020948;28;20198;-83
2021/06/09 09:27:09;;;;;;;12.57;11.48;;;;;;;25.06;56.01;96019.41;5020086;28;20203;-85
2021/06/09 09:29:35;;;;;;;12.63;11.63;;;;;;;25.17;55.71;96016.84;5019056;28;20246;-86
2021/06/09 09:32:04;;;;;;;13.98;12.88;;;;;;;25.15;54.46;96017.09;5018823;28;20223;-86
2021/06/09 09:34:38;;;;;;;15.00;13.65;;;;;;;25.16;55.64;96026.59;5021329;28;20206;-85
2021/06/09 09:37:16;;;;;;;12.90;11.70;;;;;;;25.26;56.44;96021.34;5019803;28;20290;-86
2021/06/09 09:39:45;;;;;;;13.43;12.32;;;;;;;25.29;54.07;96026.09;5015238;28;20222;-86
2021/06/09 09:42:21;;;;;;;12.88;11.63;;;;;;;25.41;53.75;96026.66;5011273;28;20195;-85
2021/06/09 09:44:47;;;;;;;13.50;12.43;;;;;;;25.28;53.87;96024.50;5017511;28;20241;-85
2021/06/09 09:47:22;;;;;;;14.27;13.00;;;;;;;25.33;53.01;96029.81;5018150;28;20250;-85
2021/06/09 09:49:49;;;;;;;14.57;13.48;;;;;;;25.13;53.69;96019.19;5018103;28;20229;-84
2021/06/09 09:52:16;;;;;;;13.55;12.45;;;;;;;25.40;54.41;96014.53;5018250;28;20215;-87
2021/06/09 09:54:44;;;;;;;13.00;11.90;;;;;;;25.58;54.88;96017.75;5016700;28;20198;-87
2021/06/09 09:57:12;;;;;;;12.93;11.85;;;;;;;25.84;53.79;96014.13;5016359;28;20203;-85
2021/06/09 09:59:39;;;;;;;12.13;11.02;;;;;;;25.95;53.82;96021.03;5017464;28;20610;-85
2021/06/09 10:02:16;;;;;;;11.70;10.80;;;;;;;25.93;52.37;96017.84;5018581;28;20199;-85
2021/06/09 10:04:47;;;;;;;11.05;10.15;;;;;;;26.04;52.00;96022.06;5018492;28;20194;-86
2021/06/09 10:07:14;;;;;;;11.43;10.52;;;;;;;26.07;52.87;96016.25;5019031;28;20262;-85
2021/06/09 10:09:43;;;;;;;13.82;11.25;;;;;;;26.18;52.46;96024.97;5017992;28;20710;-85
2021/06/09 10:12:12;;;;;;;11.85;10.82;;;;;;;26.28;50.85;96022.34;5018523;28;20249;-86
2021/06/09 10:14:41;;;;;;;11.60;10.70;;;;;;;26.28;50.14;96011.78;5017853;28;20559;-84
2021/06/09 10:17:08;;;;;;;10.40;9.50;;;;;;;26.45;50.72;96014.97;5018238;28;20206;-84
2021/06/09 10:19:37;;;;;;;8.75;8.00;;;;;;;26.52;48.24;96011.25;5018340;28;20226;-85
2021/06/09 10:22:05;;;;;;;9.32;8.63;;;;;;;26.42;47.12;96018.13;5016355;28;20211;-83
2021/06/09 10:24:42;;;;;;;10.35;9.45;;;;;;;26.49;47.85;96016.00;5014541;28;20206;-83
2021/06/09 10:27:08;;;;;;;9.32;8.60;;;;;;;26.62;47.67;96009.38;5015056;28;20198;-81
2021/06/09 10:29:35;;;;;;;9.73;8.93;;;;;;;26.71;48.69;96013.06;5014184;28;20231;-83
2021/06/09 10:32:05;;;;;;;9.40;8.63;;;;;;;26.93;48.35;96001.38;5013452;28;20202;-84
2021/06/09 10:34:33;;;;;;;9.23;8.52;;;;;;;27.05;46.91;95994.75;5013431;28;20283;-82
2021/06/09 10:37:01;;;;;;;9.07;8.38;;;;;;;27.15;47.94;95992.06;5014039;28;20307;-82
2021/06/09 10:39:29;;;;;;;10.05;9.25;;;;;;;27.21;47.16;95987.53;5014255;28;20226;-83
2021/06/09 10:41:58;;;;;;;10.70;9.80;;;;;;;27.32;48.34;95988.31;5013775;28;20210;-82
2021/06/09 10:44:27;;;;;;;10.50;9.70;;;;;;;27.36;48.48;95981.38;5014052;28;20199;-81
2021/06/09 10:46:56;;;;;;;10.38;9.50;;;;;;;27.29;48.30;95978.25;5013239;28;20203;-81
2021/06/09 10:49:23;;;;;;;10.52;9.63;;;;;;;27.46;48.26;95978.69;5013020;28;20292;-83
2021/06/09 10:51:51;;;;;;;9.88;8.98;;;;;;;27.56;47.20;95969.91;5013271;28;20199;-82
2021/06/09 10:54:17;;;;;;;9.60;8.80;;;;;;;27.54;45.61;95970.16;5013930;28;20243;-84
2021/06/09 10:56:45;;;;;;;7.72;7.22;;;;;;;27.66;44.94;95964.59;5014433;28;20206;-85
2021/06/09 10:59:15;;;;;;;8.10;7.40;;;;;;;27.73;43.84;95962.41;5016039;28;20223;-84
2021/06/09 11:01:43;;;;;;;7.97;7.35;;;;;;;27.27;45.47;95959.22;5015887;28;20692;-84
2021/06/09 11:04:10;;;;;;;7.85;7.13;;;;;;;27.27;43.97;95952.09;5015979;28;20750;-84
2021/06/09 11:06:41;;;;;;;7.03;6.53;;;;;;;27.36;41.81;95947.78;5015482;28;20199;-85
2021/06/09 11:09:24;;;;;;;7.05;6.55;;;;;;;27.43;40.79;95940.34;5016567;28;20222;-84
2021/06/09 11:12:25;;;;;;;7.40;6.72;;;;;;;27.53;40.37;95945.56;5015028;28;20293;-85
2021/06/09 11:14:54;;;;;;;7.10;6.00;;;;;;;27.76;41.81;95935.38;5011421;28;20690;-85
2021/06/09 11:17:34;;;;;;;7.80;7.22;;;;;;;27.90;42.48;95943.50;5014722;28;20207;-86
2021/06/09 11:20:12;;;;;;;7.30;6.72;;;;;;;28.13;42.99;95932.16;5015490;28;20233;-84
2021/06/09 11:22:40;;;;;;;7.20;6.60;;;;;;;27.89;42.19;95921.53;5014105;28;20210;-85
2021/06/09 11:25:28;;;;;;;6.45;6.05;;;;;;;27.80;38.96;95918.69;5014947;28;20239;-83
2021/06/09 11:27:58;;;;;;;6.80;6.32;;;;;;;27.75;38.45;95916.06;5015116;28;20287;-84
2021/06/09 11:30:58;;;;;;;6.97;6.57;;;;;;;27.82;40.04;95916.56;5013883;28;20290;-85